sensor_id;sensor_type;location;lat;lon;timestamp;temperature;humidity
34837;DHT22;21053;50.848;4.652;2023-08-31T00:03:20;13.10;99.90
34837;DHT22;21053;50.848;4.652;2023-08-31T00:05:46;13.00;99.90
34837;DHT22;21053;50.848;4.652;2023-08-31T00:08:14;13.00;99.90
34837;DHT22;21053;50.848;4.652;2023-08-31T00:10:43;13.20;99.90
34837;DHT22;21053;50.848;4.652;2023-08-31T00:13:12;13.20;99.90
34837;DHT22;21053;50.848;4.652;2023-08-31T00:15:46;13.00;99.90
34837;DHT22;21053;50.848;4.652;2023-08-31T00:18:13;13.00;99.90
34837;DHT22;21053;50.848;4.652;2023-08-31T00:20:44;12.80;99.90
34837;DHT22;21053;50.848;4.652;2023-08-31T00:23:10;12.90;99.90
34837;DHT22;21053;50.848;4.652;2023-08-31T00:25:38;12.90;99.90
34837;DHT22;21053;50.848;4.652;2023-08-31T00:28:04;13.00;99.90
34837;DHT22;21053;50.848;4.652;2023-08-31T00:30:31;12.90;99.90
34837;DHT22;21053;50.848;4.652;2023-08-31T00:33:00;12.80;99.90
34837;DHT22;21053;50.848;4.652;2023-08-31T00:35:29;12.80;99.90
34837;DHT22;21053;50.848;4.652;2023-08-31T00:37:57;12.70;99.90
34837;DHT22;21053;50.848;4.652;2023-08-31T00:40:27;12.80;99.90
34837;DHT22;21053;50.848;4.652;2023-08-31T00:42:53;12.80;99.90
34837;DHT22;21053;50.848;4.652;2023-08-31T00:45:22;12.90;99.90
34837;DHT22;21053;50.848;4.652;2023-08-31T00:47:49;13.00;99.90
34837;DHT22;21053;50.848;4.652;2023-08-31T00:50:22;13.00;99.90
34837;DHT22;21053;50.848;4.652;2023-08-31T00:52:52;12.90;99.90
34837;DHT22;21053;50.848;4.652;2023-08-31T00:55:21;12.90;99.90
34837;DHT22;21053;50.848;4.652;2023-08-31T00:57:50;12.80;99.90
34837;DHT22;21053;50.848;4.652;2023-08-31T01:00:19;12.80;99.90
34837;DHT22;21053;50.848;4.652;2023-08-31T01:05:26;12.70;99.90
34837;DHT22;21053;50.848;4.652;2023-08-31T01:10:47;12.70;99.90
34837;DHT22;21053;50.848;4.652;2023-08-31T01:13:24;12.70;99.90
34837;DHT22;21053;50.848;4.652;2023-08-31T01:16:00;12.60;99.90
34837;DHT22;21053;50.848;4.652;2023-08-31T01:18:32;12.50;99.90
34837;DHT22;21053;50.848;4.652;2023-08-31T01:21:04;12.50;99.90
34837;DHT22;21053;50.848;4.652;2023-08-31T01:23:54;12.60;99.90
34837;DHT22;21053;50.848;4.652;2023-08-31T01:26:21;12.60;99.90
34837;DHT22;21053;50.848;4.652;2023-08-31T01:28:47;12.50;99.90
34837;DHT22;21053;50.848;4.652;2023-08-31T01:31:15;12.50;99.90
34837;DHT22;21053;50.848;4.652;2023-08-31T01:33:41;12.40;99.90
34837;DHT22;21053;50.848;4.652;2023-08-31T01:36:20;12.30;99.90
34837;DHT22;21053;50.848;4.652;2023-08-31T01:38:51;12.30;99.90
34837;DHT22;21053;50.848;4.652;2023-08-31T01:41:23;12.30;99.90
34837;DHT22;21053;50.848;4.652;2023-08-31T01:44:00;12.30;99.90
34837;DHT22;21053;50.848;4.652;2023-08-31T01:46:30;12.30;99.90
34837;DHT22;21053;50.848;4.652;2023-08-31T01:48:59;12.30;99.90
34837;DHT22;21053;50.848;4.652;2023-08-31T01:51:26;12.30;99.90
34837;DHT22;21053;50.848;4.652;2023-08-31T01:53:55;12.40;99.90
34837;DHT22;21053;50.848;4.652;2023-08-31T01:56:22;12.40;99.90
34837;DHT22;21053;50.848;4.652;2023-08-31T01:58:50;12.40;99.90
34837;DHT22;21053;50.848;4.652;2023-08-31T02:01:19;12.40;99.90
34837;DHT22;21053;50.848;4.652;2023-08-31T02:03:48;12.30;99.90
34837;DHT22;21053;50.848;4.652;2023-08-31T02:06:14;12.20;99.90
34837;DHT22;21053;50.848;4.652;2023-08-31T02:08:43;12.30;99.90
34837;DHT22;21053;50.848;4.652;2023-08-31T02:11:15;12.30;99.90
34837;DHT22;21053;50.848;4.652;2023-08-31T02:13:44;12.20;99.90
34837;DHT22;21053;50.848;4.652;2023-08-31T02:16:16;12.20;99.90
34837;DHT22;21053;50.848;4.652;2023-08-31T02:18:45;12.20;99.90
34837;DHT22;21053;50.848;4.652;2023-08-31T02:21:12;12.10;99.90
34837;DHT22;21053;50.848;4.652;2023-08-31T02:23:41;12.00;99.90
34837;DHT22;21053;50.848;4.652;2023-08-31T02:26:08;12.00;99.90
34837;DHT22;21053;50.848;4.652;2023-08-31T02:28:34;11.90;99.90
34837;DHT22;21053;50.848;4.652;2023-08-31T02:31:01;11.90;99.90
34837;DHT22;21053;50.848;4.652;2023-08-31T02:33:27;12.00;99.90
34837;DHT22;21053;50.848;4.652;2023-08-31T02:35:55;12.00;99.90
34837;DHT22;21053;50.848;4.652;2023-08-31T02:38:25;11.90;99.90
34837;DHT22;21053;50.848;4.652;2023-08-31T02:40:54;11.80;99.90
34837;DHT22;21053;50.848;4.652;2023-08-31T02:43:23;11.80;99.90
34837;DHT22;21053;50.848;4.652;2023-08-31T02:49:12;11.80;99.90
34837;DHT22;21053;50.848;4.652;2023-08-31T02:51:41;11.90;99.90
34837;DHT22;21053;50.848;4.652;2023-08-31T02:54:07;11.90;99.90
34837;DHT22;21053;50.848;4.652;2023-08-31T02:56:34;11.90;99.90
34837;DHT22;21053;50.848;4.652;2023-08-31T02:59:02;11.90;99.90
34837;DHT22;21053;50.848;4.652;2023-08-31T03:01:28;11.90;99.90
34837;DHT22;21053;50.848;4.652;2023-08-31T03:03:56;12.00;99.90
34837;DHT22;21053;50.848;4.652;2023-08-31T03:06:23;12.00;99.90
34837;DHT22;21053;50.848;4.652;2023-08-31T03:08:51;11.90;99.90
34837;DHT22;21053;50.848;4.652;2023-08-31T03:11:17;11.80;99.90
34837;DHT22;21053;50.848;4.652;2023-08-31T03:13:44;11.80;99.90
34837;DHT22;21053;50.848;4.652;2023-08-31T03:16:12;11.70;99.90
34837;DHT22;21053;50.848;4.652;2023-08-31T03:18:41;11.70;99.90
34837;DHT22;21053;50.848;4.652;2023-08-31T03:21:07;11.70;99.90
34837;DHT22;21053;50.848;4.652;2023-08-31T03:23:35;11.70;99.90
34837;DHT22;21053;50.848;4.652;2023-08-31T03:26:07;11.80;99.90
34837;DHT22;21053;50.848;4.652;2023-08-31T03:28:33;11.80;99.90
34837;DHT22;21053;50.848;4.652;2023-08-31T03:30:59;11.80;99.90
34837;DHT22;21053;50.848;4.652;2023-08-31T03:33:25;11.80;99.90
34837;DHT22;21053;50.848;4.652;2023-08-31T03:35:51;11.80;99.90
34837;DHT22;21053;50.848;4.652;2023-08-31T03:38:19;11.90;99.90
34837;DHT22;21053;50.848;4.652;2023-08-31T03:40:58;11.90;99.90
34837;DHT22;21053;50.848;4.652;2023-08-31T03:43:38;11.90;99.90
34837;DHT22;21053;50.848;4.652;2023-08-31T03:49:25;12.00;99.90
34837;DHT22;21053;50.848;4.652;2023-08-31T03:51:51;12.00;99.90
34837;DHT22;21053;50.848;4.652;2023-08-31T03:54:21;12.10;99.90
34837;DHT22;21053;50.848;4.652;2023-08-31T03:56:46;12.10;99.90
34837;DHT22;21053;50.848;4.652;2023-08-31T03:59:16;12.00;99.90
34837;DHT22;21053;50.848;4.652;2023-08-31T04:01:43;11.90;99.90
34837;DHT22;21053;50.848;4.652;2023-08-31T04:04:08;11.90;99.90
34837;DHT22;21053;50.848;4.652;2023-08-31T04:06:37;12.00;99.90
34837;DHT22;21053;50.848;4.652;2023-08-31T04:09:06;12.00;99.90
34837;DHT22;21053;50.848;4.652;2023-08-31T04:11:33;12.00;99.90
34837;DHT22;21053;50.848;4.652;2023-08-31T04:14:02;12.10;99.90
34837;DHT22;21053;50.848;4.652;2023-08-31T04:16:31;12.10;99.90
34837;DHT22;21053;50.848;4.652;2023-08-31T04:18:58;12.20;99.90
34837;DHT22;21053;50.848;4.652;2023-08-31T04:21:29;12.30;99.90
34837;DHT22;21053;50.848;4.652;2023-08-31T04:23:58;12.30;99.90
34837;DHT22;21053;50.848;4.652;2023-08-31T04:26:28;12.30;99.90
34837;DHT22;21053;50.848;4.652;2023-08-31T04:28:55;12.30;99.90
34837;DHT22;21053;50.848;4.652;2023-08-31T04:31:25;12.40;99.90
34837;DHT22;21053;50.848;4.652;2023-08-31T04:33:53;12.30;99.90
34837;DHT22;21053;50.848;4.652;2023-08-31T04:36:20;12.30;99.90
34837;DHT22;21053;50.848;4.652;2023-08-31T04:38:48;12.40;99.90
34837;DHT22;21053;50.848;4.652;2023-08-31T04:41:20;12.50;99.90
34837;DHT22;21053;50.848;4.652;2023-08-31T04:43:49;12.30;99.90
34837;DHT22;21053;50.848;4.652;2023-08-31T04:46:18;12.30;99.90
34837;DHT22;21053;50.848;4.652;2023-08-31T04:48:46;12.20;99.90
34837;DHT22;21053;50.848;4.652;2023-08-31T04:51:32;12.20;99.90
34837;DHT22;21053;50.848;4.652;2023-08-31T04:54:01;12.20;99.90
34837;DHT22;21053;50.848;4.652;2023-08-31T04:56:34;12.30;99.90
34837;DHT22;21053;50.848;4.652;2023-08-31T04:59:03;12.20;99.90
34837;DHT22;21053;50.848;4.652;2023-08-31T05:01:30;12.20;99.90
34837;DHT22;21053;50.848;4.652;2023-08-31T05:03:56;12.10;99.90
34837;DHT22;21053;50.848;4.652;2023-08-31T05:06:23;12.20;99.90
34837;DHT22;21053;50.848;4.652;2023-08-31T05:08:50;12.20;99.90
34837;DHT22;21053;50.848;4.652;2023-08-31T05:11:18;12.20;99.90
34837;DHT22;21053;50.848;4.652;2023-08-31T05:13:44;12.30;99.90
34837;DHT22;21053;50.848;4.652;2023-08-31T05:16:13;12.10;99.90
34837;DHT22;21053;50.848;4.652;2023-08-31T05:18:41;12.10;99.90
34837;DHT22;21053;50.848;4.652;2023-08-31T05:21:08;12.10;99.90
34837;DHT22;21053;50.848;4.652;2023-08-31T05:23:53;12.10;99.90
34837;DHT22;21053;50.848;4.652;2023-08-31T05:26:23;12.20;99.90
34837;DHT22;21053;50.848;4.652;2023-08-31T05:28:50;12.30;99.90
34837;DHT22;21053;50.848;4.652;2023-08-31T05:31:16;12.30;99.90
34837;DHT22;21053;50.848;4.652;2023-08-31T05:33:45;12.30;99.90
34837;DHT22;21053;50.848;4.652;2023-08-31T05:36:12;12.20;99.90
34837;DHT22;21053;50.848;4.652;2023-08-31T05:38:39;12.00;99.90
34837;DHT22;21053;50.848;4.652;2023-08-31T05:41:06;11.90;99.90
34837;DHT22;21053;50.848;4.652;2023-08-31T05:43:35;12.10;99.90
34837;DHT22;21053;50.848;4.652;2023-08-31T05:46:02;12.20;99.90
34837;DHT22;21053;50.848;4.652;2023-08-31T05:48:31;12.20;99.90
34837;DHT22;21053;50.848;4.652;2023-08-31T05:50:58;12.10;99.90
34837;DHT22;21053;50.848;4.652;2023-08-31T05:53:24;12.20;99.90
34837;DHT22;21053;50.848;4.652;2023-08-31T05:55:54;12.30;99.90
34837;DHT22;21053;50.848;4.652;2023-08-31T05:58:22;12.20;99.90
34837;DHT22;21053;50.848;4.652;2023-08-31T06:00:49;12.40;99.90
34837;DHT22;21053;50.848;4.652;2023-08-31T06:03:14;12.60;99.90
34837;DHT22;21053;50.848;4.652;2023-08-31T06:05:43;12.70;99.90
34837;DHT22;21053;50.848;4.652;2023-08-31T06:08:10;12.90;99.90
34837;DHT22;21053;50.848;4.652;2023-08-31T06:10:40;13.00;99.90
34837;DHT22;21053;50.848;4.652;2023-08-31T06:13:12;13.10;99.90
34837;DHT22;21053;50.848;4.652;2023-08-31T06:15:40;13.10;99.90
34837;DHT22;21053;50.848;4.652;2023-08-31T06:18:08;13.10;99.90
34837;DHT22;21053;50.848;4.652;2023-08-31T06:20:37;13.20;99.90
34837;DHT22;21053;50.848;4.652;2023-08-31T06:23:10;13.30;99.90
34837;DHT22;21053;50.848;4.652;2023-08-31T06:25:41;13.50;99.90
34837;DHT22;21053;50.848;4.652;2023-08-31T06:28:08;13.50;99.90
34837;DHT22;21053;50.848;4.652;2023-08-31T06:30:42;13.50;99.90
34837;DHT22;21053;50.848;4.652;2023-08-31T06:33:16;13.60;99.90
34837;DHT22;21053;50.848;4.652;2023-08-31T06:35:45;13.70;99.90
34837;DHT22;21053;50.848;4.652;2023-08-31T06:38:12;13.70;99.90
34837;DHT22;21053;50.848;4.652;2023-08-31T06:40:42;13.80;99.90
34837;DHT22;21053;50.848;4.652;2023-08-31T06:43:12;13.90;99.90
34837;DHT22;21053;50.848;4.652;2023-08-31T06:45:38;13.90;99.90
34837;DHT22;21053;50.848;4.652;2023-08-31T06:48:27;13.90;99.90
34837;DHT22;21053;50.848;4.652;2023-08-31T06:51:04;13.90;99.90
34837;DHT22;21053;50.848;4.652;2023-08-31T06:53:31;14.00;99.90
34837;DHT22;21053;50.848;4.652;2023-08-31T06:56:00;14.00;99.90
34837;DHT22;21053;50.848;4.652;2023-08-31T06:58:26;14.00;99.90
34837;DHT22;21053;50.848;4.652;2023-08-31T07:00:54;14.10;99.90
34837;DHT22;21053;50.848;4.652;2023-08-31T07:03:23;14.20;99.90
34837;DHT22;21053;50.848;4.652;2023-08-31T07:05:52;14.40;99.90
34837;DHT22;21053;50.848;4.652;2023-08-31T07:08:19;14.40;99.90
34837;DHT22;21053;50.848;4.652;2023-08-31T07:10:50;14.50;99.90
34837;DHT22;21053;50.848;4.652;2023-08-31T07:13:18;14.50;99.90
34837;DHT22;21053;50.848;4.652;2023-08-31T07:15:47;14.60;99.90
34837;DHT22;21053;50.848;4.652;2023-08-31T07:18:16;14.70;99.90
34837;DHT22;21053;50.848;4.652;2023-08-31T07:20:42;14.60;99.90
34837;DHT22;21053;50.848;4.652;2023-08-31T07:23:13;14.80;99.90
34837;DHT22;21053;50.848;4.652;2023-08-31T07:25:41;15.00;99.90
34837;DHT22;21053;50.848;4.652;2023-08-31T07:28:14;15.00;99.90
34837;DHT22;21053;50.848;4.652;2023-08-31T07:30:40;15.10;99.90
34837;DHT22;21053;50.848;4.652;2023-08-31T07:33:09;15.30;99.90
34837;DHT22;21053;50.848;4.652;2023-08-31T07:35:36;15.30;99.90
34837;DHT22;21053;50.848;4.652;2023-08-31T07:38:05;15.30;99.90
34837;DHT22;21053;50.848;4.652;2023-08-31T07:40:34;15.30;99.90
34837;DHT22;21053;50.848;4.652;2023-08-31T07:43:01;15.60;99.90
34837;DHT22;21053;50.848;4.652;2023-08-31T07:45:27;15.80;99.90
34837;DHT22;21053;50.848;4.652;2023-08-31T07:50:22;15.90;99.90
34837;DHT22;21053;50.848;4.652;2023-08-31T07:52:48;15.90;99.90
34837;DHT22;21053;50.848;4.652;2023-08-31T07:55:20;16.00;99.90
34837;DHT22;21053;50.848;4.652;2023-08-31T07:57:45;15.90;99.90
34837;DHT22;21053;50.848;4.652;2023-08-31T08:00:13;15.90;99.90
34837;DHT22;21053;50.848;4.652;2023-08-31T08:02:42;16.00;99.90
34837;DHT22;21053;50.848;4.652;2023-08-31T08:05:09;15.90;99.90
34837;DHT22;21053;50.848;4.652;2023-08-31T08:07:36;16.00;99.90
34837;DHT22;21053;50.848;4.652;2023-08-31T08:10:04;16.10;99.90
34837;DHT22;21053;50.848;4.652;2023-08-31T08:12:46;16.20;99.90
34837;DHT22;21053;50.848;4.652;2023-08-31T08:15:31;16.40;99.90
34837;DHT22;21053;50.848;4.652;2023-08-31T08:17:57;16.70;99.90
34837;DHT22;21053;50.848;4.652;2023-08-31T08:20:25;16.80;99.90
34837;DHT22;21053;50.848;4.652;2023-08-31T08:22:52;16.80;99.90
34837;DHT22;21053;50.848;4.652;2023-08-31T08:25:24;17.00;99.90
34837;DHT22;21053;50.848;4.652;2023-08-31T08:27:52;16.90;99.90
34837;DHT22;21053;50.848;4.652;2023-08-31T08:30:18;17.00;99.90
34837;DHT22;21053;50.848;4.652;2023-08-31T08:32:45;17.10;99.90
34837;DHT22;21053;50.848;4.652;2023-08-31T08:35:14;17.20;99.90
34837;DHT22;21053;50.848;4.652;2023-08-31T08:37:40;17.50;99.90
34837;DHT22;21053;50.848;4.652;2023-08-31T08:40:12;17.70;99.90
34837;DHT22;21053;50.848;4.652;2023-08-31T08:42:46;18.10;99.90
34837;DHT22;21053;50.848;4.652;2023-08-31T08:45:15;18.40;99.90
34837;DHT22;21053;50.848;4.652;2023-08-31T08:47:44;18.80;99.90
34837;DHT22;21053;50.848;4.652;2023-08-31T08:50:14;19.10;99.90
34837;DHT22;21053;50.848;4.652;2023-08-31T08:52:40;19.50;99.90
34837;DHT22;21053;50.848;4.652;2023-08-31T08:55:08;19.60;99.90
34837;DHT22;21053;50.848;4.652;2023-08-31T08:57:34;20.00;99.90
34837;DHT22;21053;50.848;4.652;2023-08-31T09:00:03;20.10;99.90
34837;DHT22;21053;50.848;4.652;2023-08-31T09:02:32;20.40;99.90
34837;DHT22;21053;50.848;4.652;2023-08-31T09:05:01;20.60;99.90
34837;DHT22;21053;50.848;4.652;2023-08-31T09:07:29;20.70;99.90
34837;DHT22;21053;50.848;4.652;2023-08-31T09:12:24;20.90;99.90
34837;DHT22;21053;50.848;4.652;2023-08-31T09:15:04;21.50;99.90
34837;DHT22;21053;50.848;4.652;2023-08-31T09:17:40;21.40;99.90
34837;DHT22;21053;50.848;4.652;2023-08-31T09:20:13;21.60;99.90
34837;DHT22;21053;50.848;4.652;2023-08-31T09:22:44;21.70;99.90
34837;DHT22;21053;50.848;4.652;2023-08-31T09:25:10;21.40;99.90
34837;DHT22;21053;50.848;4.652;2023-08-31T09:27:41;21.40;99.90
34837;DHT22;21053;50.848;4.652;2023-08-31T09:30:13;21.70;99.90
34837;DHT22;21053;50.848;4.652;2023-08-31T09:32:42;21.90;99.90
34837;DHT22;21053;50.848;4.652;2023-08-31T09:35:09;22.10;99.90
34837;DHT22;21053;50.848;4.652;2023-08-31T09:37:36;22.40;99.90
34837;DHT22;21053;50.848;4.652;2023-08-31T09:40:05;22.40;99.90
34837;DHT22;21053;50.848;4.652;2023-08-31T09:42:40;22.50;99.90
34837;DHT22;21053;50.848;4.652;2023-08-31T09:45:06;22.20;99.90
34837;DHT22;21053;50.848;4.652;2023-08-31T09:47:34;22.20;99.90
34837;DHT22;21053;50.848;4.652;2023-08-31T09:50:03;21.90;99.90
34837;DHT22;21053;50.848;4.652;2023-08-31T09:52:33;21.80;99.90
34837;DHT22;21053;50.848;4.652;2023-08-31T09:55:01;21.70;99.90
34837;DHT22;21053;50.848;4.652;2023-08-31T09:57:32;22.10;99.90
34837;DHT22;21053;50.848;4.652;2023-08-31T10:00:02;22.30;99.90
34837;DHT22;21053;50.848;4.652;2023-08-31T10:02:31;22.30;99.90
34837;DHT22;21053;50.848;4.652;2023-08-31T10:04:59;22.10;99.90
34837;DHT22;21053;50.848;4.652;2023-08-31T10:07:25;21.90;99.90
34837;DHT22;21053;50.848;4.652;2023-08-31T10:09:52;22.10;99.90
34837;DHT22;21053;50.848;4.652;2023-08-31T10:12:21;21.60;99.90
34837;DHT22;21053;50.848;4.652;2023-08-31T10:14:48;21.80;99.90
34837;DHT22;21053;50.848;4.652;2023-08-31T10:17:15;22.00;99.90
34837;DHT22;21053;50.848;4.652;2023-08-31T10:19:44;21.70;99.90
34837;DHT22;21053;50.848;4.652;2023-08-31T10:22:11;21.40;99.90
34837;DHT22;21053;50.848;4.652;2023-08-31T10:24:57;21.20;99.90
34837;DHT22;21053;50.848;4.652;2023-08-31T10:27:25;21.40;99.90
34837;DHT22;21053;50.848;4.652;2023-08-31T10:29:54;21.20;99.90
34837;DHT22;21053;50.848;4.652;2023-08-31T10:32:22;20.90;99.90
34837;DHT22;21053;50.848;4.652;2023-08-31T10:35:10;20.90;99.90
34837;DHT22;21053;50.848;4.652;2023-08-31T10:37:36;20.80;99.90
34837;DHT22;21053;50.848;4.652;2023-08-31T10:40:09;20.80;99.90
34837;DHT22;21053;50.848;4.652;2023-08-31T10:42:48;20.60;99.90
34837;DHT22;21053;50.848;4.652;2023-08-31T10:45:43;20.60;99.90
34837;DHT22;21053;50.848;4.652;2023-08-31T10:48:12;20.50;99.90
34837;DHT22;21053;50.848;4.652;2023-08-31T10:50:45;20.60;99.90
34837;DHT22;21053;50.848;4.652;2023-08-31T10:53:12;20.80;99.90
34837;DHT22;21053;50.848;4.652;2023-08-31T10:55:54;20.90;99.90
34837;DHT22;21053;50.848;4.652;2023-08-31T10:58:42;20.90;99.90
34837;DHT22;21053;50.848;4.652;2023-08-31T11:01:55;21.50;99.90
34837;DHT22;21053;50.848;4.652;2023-08-31T11:04:28;21.90;99.90
34837;DHT22;21053;50.848;4.652;2023-08-31T11:07:16;21.10;99.90
34837;DHT22;21053;50.848;4.652;2023-08-31T11:10:11;20.70;99.90
34837;DHT22;21053;50.848;4.652;2023-08-31T11:15:16;20.80;99.90
34837;DHT22;21053;50.848;4.652;2023-08-31T11:17:43;20.90;99.90
34837;DHT22;21053;50.848;4.652;2023-08-31T11:20:19;20.90;99.90
34837;DHT22;21053;50.848;4.652;2023-08-31T11:23:57;20.90;99.90
34837;DHT22;21053;50.848;4.652;2023-08-31T11:26:26;21.10;99.90
34837;DHT22;21053;50.848;4.652;2023-08-31T11:28:55;21.50;99.90
34837;DHT22;21053;50.848;4.652;2023-08-31T11:31:24;22.10;99.90
34837;DHT22;21053;50.848;4.652;2023-08-31T11:33:51;22.40;99.90
34837;DHT22;21053;50.848;4.652;2023-08-31T11:36:18;22.20;99.90
34837;DHT22;21053;50.848;4.652;2023-08-31T11:38:48;21.80;99.90
34837;DHT22;21053;50.848;4.652;2023-08-31T11:41:17;21.70;99.90
34837;DHT22;21053;50.848;4.652;2023-08-31T11:43:44;21.40;99.90
34837;DHT22;21053;50.848;4.652;2023-08-31T11:46:11;21.50;99.90
34837;DHT22;21053;50.848;4.652;2023-08-31T11:48:37;21.80;99.90
34837;DHT22;21053;50.848;4.652;2023-08-31T11:51:03;21.70;99.90
34837;DHT22;21053;50.848;4.652;2023-08-31T11:53:29;21.70;99.80
34837;DHT22;21053;50.848;4.652;2023-08-31T11:55:55;21.70;99.90
34837;DHT22;21053;50.848;4.652;2023-08-31T11:58:25;21.60;99.90
34837;DHT22;21053;50.848;4.652;2023-08-31T12:01:00;21.40;99.90
34837;DHT22;21053;50.848;4.652;2023-08-31T12:03:37;21.20;99.90
34837;DHT22;21053;50.848;4.652;2023-08-31T12:06:10;21.30;99.90
34837;DHT22;21053;50.848;4.652;2023-08-31T12:08:38;21.40;99.90
34837;DHT22;21053;50.848;4.652;2023-08-31T12:11:22;21.60;99.90
34837;DHT22;21053;50.848;4.652;2023-08-31T12:13:51;21.60;99.90
34837;DHT22;21053;50.848;4.652;2023-08-31T12:16:22;21.70;99.90
34837;DHT22;21053;50.848;4.652;2023-08-31T12:18:49;21.80;99.90
34837;DHT22;21053;50.848;4.652;2023-08-31T12:21:19;21.70;99.70
34837;DHT22;21053;50.848;4.652;2023-08-31T12:23:46;21.40;99.80
34837;DHT22;21053;50.848;4.652;2023-08-31T12:26:15;21.10;99.90
34837;DHT22;21053;50.848;4.652;2023-08-31T12:28:44;21.00;99.90
34837;DHT22;21053;50.848;4.652;2023-08-31T12:33:37;20.30;99.80
34837;DHT22;21053;50.848;4.652;2023-08-31T12:36:09;20.00;99.90
34837;DHT22;21053;50.848;4.652;2023-08-31T12:38:37;20.00;99.90
34837;DHT22;21053;50.848;4.652;2023-08-31T12:41:02;19.80;99.90
34837;DHT22;21053;50.848;4.652;2023-08-31T12:43:30;19.70;99.90
34837;DHT22;21053;50.848;4.652;2023-08-31T12:46:00;19.80;99.90
34837;DHT22;21053;50.848;4.652;2023-08-31T12:48:28;19.90;99.90
34837;DHT22;21053;50.848;4.652;2023-08-31T12:50:56;19.80;99.90
34837;DHT22;21053;50.848;4.652;2023-08-31T12:53:24;19.50;99.90
34837;DHT22;21053;50.848;4.652;2023-08-31T12:55:52;19.70;99.90
34837;DHT22;21053;50.848;4.652;2023-08-31T12:58:19;19.80;99.90
34837;DHT22;21053;50.848;4.652;2023-08-31T13:00:46;19.80;99.90
34837;DHT22;21053;50.848;4.652;2023-08-31T13:03:16;19.90;99.90
34837;DHT22;21053;50.848;4.652;2023-08-31T13:05:45;20.00;99.90
34837;DHT22;21053;50.848;4.652;2023-08-31T13:10:41;20.30;99.90
34837;DHT22;21053;50.848;4.652;2023-08-31T13:13:10;20.50;99.90
34837;DHT22;21053;50.848;4.652;2023-08-31T13:15:36;20.30;99.90
34837;DHT22;21053;50.848;4.652;2023-08-31T13:18:04;20.40;99.90
34837;DHT22;21053;50.848;4.652;2023-08-31T13:20:33;20.50;99.90
34837;DHT22;21053;50.848;4.652;2023-08-31T13:23:04;20.60;99.90
34837;DHT22;21053;50.848;4.652;2023-08-31T13:25:33;20.70;99.90
34837;DHT22;21053;50.848;4.652;2023-08-31T13:28:02;20.70;99.90
34837;DHT22;21053;50.848;4.652;2023-08-31T13:30:30;20.90;99.90
34837;DHT22;21053;50.848;4.652;2023-08-31T13:32:59;21.10;99.60
34837;DHT22;21053;50.848;4.652;2023-08-31T13:35:28;21.10;99.90
34837;DHT22;21053;50.848;4.652;2023-08-31T13:37:57;21.30;99.90
34837;DHT22;21053;50.848;4.652;2023-08-31T13:40:22;21.40;98.80
34837;DHT22;21053;50.848;4.652;2023-08-31T13:42:59;21.20;98.60
34837;DHT22;21053;50.848;4.652;2023-08-31T13:45:45;21.00;97.90
34837;DHT22;21053;50.848;4.652;2023-08-31T13:48:16;21.20;98.40
34837;DHT22;21053;50.848;4.652;2023-08-31T13:50:43;21.40;98.60
34837;DHT22;21053;50.848;4.652;2023-08-31T13:53:14;21.60;97.60
34837;DHT22;21053;50.848;4.652;2023-08-31T13:55:41;21.40;98.00
34837;DHT22;21053;50.848;4.652;2023-08-31T13:58:08;21.40;97.80
34837;DHT22;21053;50.848;4.652;2023-08-31T14:00:37;21.10;97.80
34837;DHT22;21053;50.848;4.652;2023-08-31T14:03:05;20.80;97.20
34837;DHT22;21053;50.848;4.652;2023-08-31T14:05:34;20.80;99.20
34837;DHT22;21053;50.848;4.652;2023-08-31T14:08:03;20.70;99.10
34837;DHT22;21053;50.848;4.652;2023-08-31T14:10:33;20.50;98.50
34837;DHT22;21053;50.848;4.652;2023-08-31T14:13:04;20.60;99.70
34837;DHT22;21053;50.848;4.652;2023-08-31T14:15:33;20.90;99.70
34837;DHT22;21053;50.848;4.652;2023-08-31T14:18:02;21.10;99.90
34837;DHT22;21053;50.848;4.652;2023-08-31T14:20:33;21.00;98.90
34837;DHT22;21053;50.848;4.652;2023-08-31T14:23:01;21.10;99.20
34837;DHT22;21053;50.848;4.652;2023-08-31T14:25:27;20.90;99.80
34837;DHT22;21053;50.848;4.652;2023-08-31T14:27:56;20.70;98.80
34837;DHT22;21053;50.848;4.652;2023-08-31T14:30:25;20.70;99.90
34837;DHT22;21053;50.848;4.652;2023-08-31T14:32:52;20.60;99.00
34837;DHT22;21053;50.848;4.652;2023-08-31T14:35:23;20.40;99.70
34837;DHT22;21053;50.848;4.652;2023-08-31T14:37:50;20.30;99.90
34837;DHT22;21053;50.848;4.652;2023-08-31T14:40:17;20.50;99.90
34837;DHT22;21053;50.848;4.652;2023-08-31T14:42:44;20.80;99.90
34837;DHT22;21053;50.848;4.652;2023-08-31T14:45:12;20.80;99.90
34837;DHT22;21053;50.848;4.652;2023-08-31T14:47:38;20.90;99.90
34837;DHT22;21053;50.848;4.652;2023-08-31T14:50:07;21.00;99.90
34837;DHT22;21053;50.848;4.652;2023-08-31T14:52:44;20.80;99.10
34837;DHT22;21053;50.848;4.652;2023-08-31T14:55:11;20.60;98.70
34837;DHT22;21053;50.848;4.652;2023-08-31T14:57:40;20.30;99.00
34837;DHT22;21053;50.848;4.652;2023-08-31T15:00:11;20.30;99.60
34837;DHT22;21053;50.848;4.652;2023-08-31T15:02:38;20.30;99.90
34837;DHT22;21053;50.848;4.652;2023-08-31T15:05:04;20.40;99.90
34837;DHT22;21053;50.848;4.652;2023-08-31T15:07:33;20.30;99.90
34837;DHT22;21053;50.848;4.652;2023-08-31T15:10:33;20.30;99.90
34837;DHT22;21053;50.848;4.652;2023-08-31T15:13:02;20.30;99.90
34837;DHT22;21053;50.848;4.652;2023-08-31T15:15:36;20.40;99.90
34837;DHT22;21053;50.848;4.652;2023-08-31T15:18:08;20.60;99.90
34837;DHT22;21053;50.848;4.652;2023-08-31T15:20:37;20.60;99.90
34837;DHT22;21053;50.848;4.652;2023-08-31T15:23:10;20.40;98.50
34837;DHT22;21053;50.848;4.652;2023-08-31T15:25:37;20.50;99.90
34837;DHT22;21053;50.848;4.652;2023-08-31T15:28:07;20.30;99.90
34837;DHT22;21053;50.848;4.652;2023-08-31T15:30:34;20.30;99.70
34837;DHT22;21053;50.848;4.652;2023-08-31T15:33:11;20.30;99.40
34837;DHT22;21053;50.848;4.652;2023-08-31T15:35:39;20.30;99.90
34837;DHT22;21053;50.848;4.652;2023-08-31T15:38:09;20.10;99.90
34837;DHT22;21053;50.848;4.652;2023-08-31T15:40:38;20.20;99.90
34837;DHT22;21053;50.848;4.652;2023-08-31T15:43:04;20.30;99.90
34837;DHT22;21053;50.848;4.652;2023-08-31T15:45:31;20.30;99.90
34837;DHT22;21053;50.848;4.652;2023-08-31T15:47:59;20.30;99.90
34837;DHT22;21053;50.848;4.652;2023-08-31T15:50:28;20.10;99.90
34837;DHT22;21053;50.848;4.652;2023-08-31T15:52:55;20.10;99.90
34837;DHT22;21053;50.848;4.652;2023-08-31T15:55:25;20.20;99.90
34837;DHT22;21053;50.848;4.652;2023-08-31T15:57:54;20.00;99.90
34837;DHT22;21053;50.848;4.652;2023-08-31T16:00:20;20.00;99.90
34837;DHT22;21053;50.848;4.652;2023-08-31T16:02:49;20.10;99.90
34837;DHT22;21053;50.848;4.652;2023-08-31T16:05:18;20.10;99.90
34837;DHT22;21053;50.848;4.652;2023-08-31T16:07:44;19.80;99.90
34837;DHT22;21053;50.848;4.652;2023-08-31T16:10:10;19.90;99.90
34837;DHT22;21053;50.848;4.652;2023-08-31T16:12:38;19.80;99.90